sensor_id;sensor_type;location;lat;lon;timestamp;P1;durP1;ratioP1;P2;durP2;ratioP2
7969;SDS011;4030;52.362;9.206;2023-03-14T00:02:03;2.90;;;1.38;;
7969;SDS011;4030;52.362;9.206;2023-03-14T00:04:29;1.92;;;1.27;;
7969;SDS011;4030;52.362;9.206;2023-03-14T00:06:55;2.55;;;1.23;;
7969;SDS011;4030;52.362;9.206;2023-03-14T00:09:21;3.50;;;1.20;;
7969;SDS011;4030;52.362;9.206;2023-03-14T00:11:47;2.67;;;1.40;;
7969;SDS011;4030;52.362;9.206;2023-03-14T00:14:12;3.08;;;1.30;;
7969;SDS011;4030;52.362;9.206;2023-03-14T00:16:40;2.90;;;1.40;;
7969;SDS011;4030;52.362;9.206;2023-03-14T00:19:06;3.22;;;1.50;;
7969;SDS011;4030;52.362;9.206;2023-03-14T00:21:31;2.67;;;1.40;;
7969;SDS011;4030;52.362;9.206;2023-03-14T00:23:57;2.85;;;1.35;;
7969;SDS011;4030;52.362;9.206;2023-03-14T00:26:23;3.00;;;1.30;;
7969;SDS011;4030;52.362;9.206;2023-03-14T00:28:53;3.88;;;1.50;;
7969;SDS011;4030;52.362;9.206;2023-03-14T00:31:19;2.90;;;1.30;;
7969;SDS011;4030;52.362;9.206;2023-03-14T00:33:44;2.72;;;1.38;;
7969;SDS011;4030;52.362;9.206;2023-03-14T00:36:12;3.38;;;1.50;;
7969;SDS011;4030;52.362;9.206;2023-03-14T00:38:41;3.05;;;1.20;;
7969;SDS011;4030;52.362;9.206;2023-03-14T00:41:09;2.75;;;1.52;;
7969;SDS011;4030;52.362;9.206;2023-03-14T00:43:38;4.18;;;1.50;;
7969;SDS011;4030;52.362;9.206;2023-03-14T00:46:04;3.55;;;1.60;;
7969;SDS011;4030;52.362;9.206;2023-03-14T00:48:30;3.17;;;1.35;;
7969;SDS011;4030;52.362;9.206;2023-03-14T00:50:56;3.15;;;1.20;;
7969;SDS011;4030;52.362;9.206;2023-03-14T00:53:22;2.38;;;1.35;;
7969;SDS011;4030;52.362;9.206;2023-03-14T00:55:48;3.13;;;1.40;;
7969;SDS011;4030;52.362;9.206;2023-03-14T00:58:15;3.28;;;1.40;;
7969;SDS011;4030;52.362;9.206;2023-03-14T01:00:42;2.90;;;1.30;;
7969;SDS011;4030;52.362;9.206;2023-03-14T01:03:10;3.38;;;1.45;;
7969;SDS011;4030;52.362;9.206;2023-03-14T01:05:38;2.47;;;1.25;;
7969;SDS011;4030;52.362;9.206;2023-03-14T01:08:05;2.78;;;1.20;;
7969;SDS011;4030;52.362;9.206;2023-03-14T01:10:31;3.35;;;1.20;;
7969;SDS011;4030;52.362;9.206;2023-03-14T01:12:58;3.20;;;1.40;;
7969;SDS011;4030;52.362;9.206;2023-03-14T01:15:23;4.47;;;1.35;;
7969;SDS011;4030;52.362;9.206;2023-03-14T01:17:49;2.58;;;1.13;;
7969;SDS011;4030;52.362;9.206;2023-03-14T01:20:16;2.78;;;1.40;;
7969;SDS011;4030;52.362;9.206;2023-03-14T01:22:44;2.55;;;1.55;;
7969;SDS011;4030;52.362;9.206;2023-03-14T01:25:11;4.13;;;1.40;;
7969;SDS011;4030;52.362;9.206;2023-03-14T01:27:39;3.15;;;1.35;;
7969;SDS011;4030;52.362;9.206;2023-03-14T01:30:05;3.85;;;1.35;;
7969;SDS011;4030;52.362;9.206;2023-03-14T01:32:32;3.10;;;1.48;;
7969;SDS011;4030;52.362;9.206;2023-03-14T01:34:58;2.28;;;1.42;;
7969;SDS011;4030;52.362;9.206;2023-03-14T01:37:24;2.90;;;1.30;;
7969;SDS011;4030;52.362;9.206;2023-03-14T01:39:50;3.70;;;1.70;;
7969;SDS011;4030;52.362;9.206;2023-03-14T01:42:15;3.25;;;1.30;;
7969;SDS011;4030;52.362;9.206;2023-03-14T01:47:22;2.42;;;1.27;;
7969;SDS011;4030;52.362;9.206;2023-03-14T01:49:53;3.90;;;1.30;;
7969;SDS011;4030;52.362;9.206;2023-03-14T01:52:28;3.55;;;1.50;;
7969;SDS011;4030;52.362;9.206;2023-03-14T01:55:02;3.72;;;1.30;;
7969;SDS011;4030;52.362;9.206;2023-03-14T01:57:32;4.22;;;1.40;;
7969;SDS011;4030;52.362;9.206;2023-03-14T02:00:09;3.88;;;1.60;;
7969;SDS011;4030;52.362;9.206;2023-03-14T02:02:39;3.70;;;1.52;;
7969;SDS011;4030;52.362;9.206;2023-03-14T02:05:10;2.90;;;1.27;;
7969;SDS011;4030;52.362;9.206;2023-03-14T02:07:43;3.20;;;1.40;;
7969;SDS011;4030;52.362;9.206;2023-03-14T02:10:14;3.80;;;1.35;;
7969;SDS011;4030;52.362;9.206;2023-03-14T02:12:47;2.13;;;1.15;;
7969;SDS011;4030;52.362;9.206;2023-03-14T02:15:13;2.60;;;1.30;;
7969;SDS011;4030;52.362;9.206;2023-03-14T02:17:40;2.25;;;1.20;;
7969;SDS011;4030;52.362;9.206;2023-03-14T02:20:10;3.20;;;1.40;;
7969;SDS011;4030;52.362;9.206;2023-03-14T02:23:05;3.70;;;1.20;;
7969;SDS011;4030;52.362;9.206;2023-03-14T02:25:34;3.22;;;1.40;;
7969;SDS011;4030;52.362;9.206;2023-03-14T02:28:24;4.70;;;1.58;;
7969;SDS011;4030;52.362;9.206;2023-03-14T02:30:50;4.93;;;1.63;;
7969;SDS011;4030;52.362;9.206;2023-03-14T02:33:16;3.28;;;1.30;;
7969;SDS011;4030;52.362;9.206;2023-03-14T02:36:00;2.92;;;1.10;;
7969;SDS011;4030;52.362;9.206;2023-03-14T02:38:33;3.40;;;1.63;;
7969;SDS011;4030;52.362;9.206;2023-03-14T02:41:33;2.55;;;1.25;;
7969;SDS011;4030;52.362;9.206;2023-03-14T02:43:59;3.08;;;1.15;;
7969;SDS011;4030;52.362;9.206;2023-03-14T02:46:25;3.25;;;1.25;;
7969;SDS011;4030;52.362;9.206;2023-03-14T02:48:52;3.75;;;1.40;;
7969;SDS011;4030;52.362;9.206;2023-03-14T02:51:21;3.55;;;1.55;;
7969;SDS011;4030;52.362;9.206;2023-03-14T02:53:48;2.60;;;1.20;;
7969;SDS011;4030;52.362;9.206;2023-03-14T02:56:14;2.65;;;1.35;;
7969;SDS011;4030;52.362;9.206;2023-03-14T02:58:39;3.28;;;1.30;;
7969;SDS011;4030;52.362;9.206;2023-03-14T03:01:05;2.97;;;1.40;;
7969;SDS011;4030;52.362;9.206;2023-03-14T03:03:31;2.03;;;1.20;;
7969;SDS011;4030;52.362;9.206;2023-03-14T03:05:57;3.60;;;1.23;;
7969;SDS011;4030;52.362;9.206;2023-03-14T03:08:24;3.33;;;1.30;;
7969;SDS011;4030;52.362;9.206;2023-03-14T03:10:51;5.15;;;1.13;;
7969;SDS011;4030;52.362;9.206;2023-03-14T03:13:18;3.63;;;1.23;;
7969;SDS011;4030;52.362;9.206;2023-03-14T03:15:44;3.97;;;1.10;;
7969;SDS011;4030;52.362;9.206;2023-03-14T03:18:10;2.47;;;1.20;;
7969;SDS011;4030;52.362;9.206;2023-03-14T03:20:36;1.88;;;1.10;;
7969;SDS011;4030;52.362;9.206;2023-03-14T03:23:03;3.58;;;1.30;;
7969;SDS011;4030;52.362;9.206;2023-03-14T03:25:29;3.03;;;1.20;;
7969;SDS011;4030;52.362;9.206;2023-03-14T03:27:56;3.92;;;1.40;;
7969;SDS011;4030;52.362;9.206;2023-03-14T03:30:22;2.50;;;1.00;;
7969;SDS011;4030;52.362;9.206;2023-03-14T03:32:48;3.85;;;1.20;;
7969;SDS011;4030;52.362;9.206;2023-03-14T03:35:14;2.45;;;1.10;;
7969;SDS011;4030;52.362;9.206;2023-03-14T03:37:40;2.75;;;1.25;;
7969;SDS011;4030;52.362;9.206;2023-03-14T03:40:06;1.63;;;0.77;;
7969;SDS011;4030;52.362;9.206;2023-03-14T03:42:34;2.20;;;0.90;;
7969;SDS011;4030;52.362;9.206;2023-03-14T03:45:01;1.60;;;0.70;;
7969;SDS011;4030;52.362;9.206;2023-03-14T03:47:27;0.90;;;0.75;;
7969;SDS011;4030;52.362;9.206;2023-03-14T03:49:55;1.23;;;0.75;;
7969;SDS011;4030;52.362;9.206;2023-03-14T03:52:21;2.88;;;0.90;;
7969;SDS011;4030;52.362;9.206;2023-03-14T03:54:47;1.55;;;0.70;;
7969;SDS011;4030;52.362;9.206;2023-03-14T03:57:13;2.38;;;0.80;;
7969;SDS011;4030;52.362;9.206;2023-03-14T03:59:39;1.55;;;0.73;;
7969;SDS011;4030;52.362;9.206;2023-03-14T04:02:06;0.85;;;0.70;;
7969;SDS011;4030;52.362;9.206;2023-03-14T04:04:32;1.42;;;0.70;;
7969;SDS011;4030;52.362;9.206;2023-03-14T04:06:57;2.03;;;0.75;;
7969;SDS011;4030;52.362;9.206;2023-03-14T04:09:23;0.98;;;0.70;;
7969;SDS011;4030;52.362;9.206;2023-03-14T04:11:49;1.90;;;0.70;;
7969;SDS011;4030;52.362;9.206;2023-03-14T04:14:15;1.75;;;0.90;;
7969;SDS011;4030;52.362;9.206;2023-03-14T04:16:41;2.05;;;0.85;;
7969;SDS011;4030;52.362;9.206;2023-03-14T04:19:07;1.83;;;0.77;;
7969;SDS011;4030;52.362;9.206;2023-03-14T04:21:33;2.20;;;0.82;;
7969;SDS011;4030;52.362;9.206;2023-03-14T04:23:59;1.30;;;0.75;;
7969;SDS011;4030;52.362;9.206;2023-03-14T04:26:25;1.30;;;0.70;;
7969;SDS011;4030;52.362;9.206;2023-03-14T04:28:51;1.52;;;0.80;;
7969;SDS011;4030;52.362;9.206;2023-03-14T04:31:19;1.13;;;0.70;;
7969;SDS011;4030;52.362;9.206;2023-03-14T04:33:46;2.53;;;0.93;;
7969;SDS011;4030;52.362;9.206;2023-03-14T04:36:12;1.25;;;0.65;;
7969;SDS011;4030;52.362;9.206;2023-03-14T04:38:39;1.83;;;0.80;;
7969;SDS011;4030;52.362;9.206;2023-03-14T04:41:05;0.73;;;0.60;;
7969;SDS011;4030;52.362;9.206;2023-03-14T04:43:31;3.17;;;0.82;;
7969;SDS011;4030;52.362;9.206;2023-03-14T04:45:58;1.80;;;0.80;;
7969;SDS011;4030;52.362;9.206;2023-03-14T04:48:25;2.80;;;0.90;;
7969;SDS011;4030;52.362;9.206;2023-03-14T04:50:52;1.98;;;0.80;;
7969;SDS011;4030;52.362;9.206;2023-03-14T04:53:18;1.77;;;0.73;;
7969;SDS011;4030;52.362;9.206;2023-03-14T04:55:48;1.25;;;0.70;;
7969;SDS011;4030;52.362;9.206;2023-03-14T04:58:19;3.05;;;0.80;;
7969;SDS011;4030;52.362;9.206;2023-03-14T05:00:46;2.08;;;0.88;;
7969;SDS011;4030;52.362;9.206;2023-03-14T05:03:14;1.83;;;0.90;;
7969;SDS011;4030;52.362;9.206;2023-03-14T05:05:40;1.13;;;0.80;;
7969;SDS011;4030;52.362;9.206;2023-03-14T05:08:07;2.78;;;0.95;;
7969;SDS011;4030;52.362;9.206;2023-03-14T05:10:33;3.05;;;1.00;;
7969;SDS011;4030;52.362;9.206;2023-03-14T05:12:58;1.67;;;0.82;;
7969;SDS011;4030;52.362;9.206;2023-03-14T05:15:24;1.95;;;0.80;;
7969;SDS011;4030;52.362;9.206;2023-03-14T05:17:51;1.85;;;0.93;;
7969;SDS011;4030;52.362;9.206;2023-03-14T05:20:18;3.10;;;0.95;;
7969;SDS011;4030;52.362;9.206;2023-03-14T05:22:45;2.08;;;1.02;;
7969;SDS011;4030;52.362;9.206;2023-03-14T05:25:11;3.63;;;1.23;;
7969;SDS011;4030;52.362;9.206;2023-03-14T05:27:36;3.58;;;1.20;;
7969;SDS011;4030;52.362;9.206;2023-03-14T05:30:05;1.83;;;0.90;;
7969;SDS011;4030;52.362;9.206;2023-03-14T05:32:32;2.40;;;1.10;;
7969;SDS011;4030;52.362;9.206;2023-03-14T05:34:58;2.35;;;1.30;;
7969;SDS011;4030;52.362;9.206;2023-03-14T05:37:27;2.92;;;1.02;;
7969;SDS011;4030;52.362;9.206;2023-03-14T05:39:52;3.10;;;1.00;;
7969;SDS011;4030;52.362;9.206;2023-03-14T05:42:18;2.75;;;0.98;;
7969;SDS011;4030;52.362;9.206;2023-03-14T05:44:44;2.17;;;1.00;;
7969;SDS011;4030;52.362;9.206;2023-03-14T05:47:10;2.38;;;1.20;;
7969;SDS011;4030;52.362;9.206;2023-03-14T05:49:36;1.90;;;1.00;;
7969;SDS011;4030;52.362;9.206;2023-03-14T05:52:02;3.20;;;1.25;;
7969;SDS011;4030;52.362;9.206;2023-03-14T05:54:28;2.53;;;1.05;;
7969;SDS011;4030;52.362;9.206;2023-03-14T05:56:54;2.28;;;1.05;;
7969;SDS011;4030;52.362;9.206;2023-03-14T05:59:20;3.28;;;1.05;;
7969;SDS011;4030;52.362;9.206;2023-03-14T06:01:46;3.13;;;1.13;;
7969;SDS011;4030;52.362;9.206;2023-03-14T06:04:12;4.07;;;1.40;;
7969;SDS011;4030;52.362;9.206;2023-03-14T06:06:38;3.33;;;1.02;;
7969;SDS011;4030;52.362;9.206;2023-03-14T06:09:04;1.70;;;0.90;;
7969;SDS011;4030;52.362;9.206;2023-03-14T06:11:30;3.05;;;1.30;;
7969;SDS011;4030;52.362;9.206;2023-03-14T06:13:56;3.40;;;1.20;;
7969;SDS011;4030;52.362;9.206;2023-03-14T06:16:22;3.25;;;1.20;;
7969;SDS011;4030;52.362;9.206;2023-03-14T06:18:48;2.63;;;1.13;;
7969;SDS011;4030;52.362;9.206;2023-03-14T06:21:14;2.70;;;1.05;;
7969;SDS011;4030;52.362;9.206;2023-03-14T06:23:40;4.20;;;1.35;;
7969;SDS011;4030;52.362;9.206;2023-03-14T06:26:06;3.28;;;1.15;;
7969;SDS011;4030;52.362;9.206;2023-03-14T06:28:32;3.50;;;1.45;;
7969;SDS011;4030;52.362;9.206;2023-03-14T06:30:59;3.35;;;1.10;;
7969;SDS011;4030;52.362;9.206;2023-03-14T06:33:25;2.88;;;1.17;;
7969;SDS011;4030;52.362;9.206;2023-03-14T06:35:51;3.72;;;1.38;;
7969;SDS011;4030;52.362;9.206;2023-03-14T06:38:17;3.80;;;1.13;;
7969;SDS011;4030;52.362;9.206;2023-03-14T06:40:43;3.30;;;1.20;;
7969;SDS011;4030;52.362;9.206;2023-03-14T06:43:09;2.47;;;0.90;;
7969;SDS011;4030;52.362;9.206;2023-03-14T06:45:35;1.95;;;0.90;;
7969;SDS011;4030;52.362;9.206;2023-03-14T06:48:01;3.13;;;1.13;;
7969;SDS011;4030;52.362;9.206;2023-03-14T06:50:27;1.90;;;0.80;;
7969;SDS011;4030;52.362;9.206;2023-03-14T06:52:53;2.58;;;0.90;;
7969;SDS011;4030;52.362;9.206;2023-03-14T06:55:18;2.22;;;0.70;;
7969;SDS011;4030;52.362;9.206;2023-03-14T06:57:45;2.33;;;0.77;;
7969;SDS011;4030;52.362;9.206;2023-03-14T07:00:12;3.70;;;0.80;;
7969;SDS011;4030;52.362;9.206;2023-03-14T07:02:38;1.00;;;0.70;;
7969;SDS011;4030;52.362;9.206;2023-03-14T07:05:05;2.03;;;0.70;;
7969;SDS011;4030;52.362;9.206;2023-03-14T07:07:31;2.38;;;0.85;;
7969;SDS011;4030;52.362;9.206;2023-03-14T07:09:57;1.38;;;0.70;;
7969;SDS011;4030;52.362;9.206;2023-03-14T07:12:23;1.02;;;0.68;;
7969;SDS011;4030;52.362;9.206;2023-03-14T07:14:48;1.05;;;0.60;;
7969;SDS011;4030;52.362;9.206;2023-03-14T07:17:14;1.70;;;0.82;;
7969;SDS011;4030;52.362;9.206;2023-03-14T07:19:40;1.85;;;0.80;;
7969;SDS011;4030;52.362;9.206;2023-03-14T07:22:06;0.75;;;0.60;;
7969;SDS011;4030;52.362;9.206;2023-03-14T07:24:32;1.23;;;0.70;;
7969;SDS011;4030;52.362;9.206;2023-03-14T07:26:58;1.20;;;0.70;;
7969;SDS011;4030;52.362;9.206;2023-03-14T07:29:24;0.98;;;0.60;;
7969;SDS011;4030;52.362;9.206;2023-03-14T07:31:50;0.60;;;0.60;;
7969;SDS011;4030;52.362;9.206;2023-03-14T07:34:16;1.08;;;0.50;;
7969;SDS011;4030;52.362;9.206;2023-03-14T07:36:42;0.52;;;0.50;;
7969;SDS011;4030;52.362;9.206;2023-03-14T07:39:08;0.88;;;0.60;;
7969;SDS011;4030;52.362;9.206;2023-03-14T07:41:34;1.13;;;0.70;;
7969;SDS011;4030;52.362;9.206;2023-03-14T07:44:00;0.40;;;0.40;;
7969;SDS011;4030;52.362;9.206;2023-03-14T07:46:26;0.60;;;0.50;;
7969;SDS011;4030;52.362;9.206;2023-03-14T07:48:52;0.85;;;0.50;;
7969;SDS011;4030;52.362;9.206;2023-03-14T07:51:19;0.63;;;0.47;;
7969;SDS011;4030;52.362;9.206;2023-03-14T07:53:45;0.82;;;0.60;;
7969;SDS011;4030;52.362;9.206;2023-03-14T07:56:11;0.50;;;0.50;;
7969;SDS011;4030;52.362;9.206;2023-03-14T07:58:37;0.50;;;0.50;;
7969;SDS011;4030;52.362;9.206;2023-03-14T08:01:03;0.45;;;0.45;;
7969;SDS011;4030;52.362;9.206;2023-03-14T08:03:29;0.80;;;0.50;;
7969;SDS011;4030;52.362;9.206;2023-03-14T08:05:55;0.90;;;0.60;;
7969;SDS011;4030;52.362;9.206;2023-03-14T08:08:21;0.90;;;0.60;;
7969;SDS011;4030;52.362;9.206;2023-03-14T08:10:46;0.85;;;0.50;;
7969;SDS011;4030;52.362;9.206;2023-03-14T08:13:12;1.30;;;0.60;;
7969;SDS011;4030;52.362;9.206;2023-03-14T08:15:38;0.52;;;0.50;;
7969;SDS011;4030;52.362;9.206;2023-03-14T08:18:04;0.93;;;0.50;;
7969;SDS011;4030;52.362;9.206;2023-03-14T08:20:30;0.57;;;0.47;;
7969;SDS011;4030;52.362;9.206;2023-03-14T08:22:57;0.73;;;0.60;;
7969;SDS011;4030;52.362;9.206;2023-03-14T08:25:24;0.68;;;0.60;;
7969;SDS011;4030;52.362;9.206;2023-03-14T08:27:51;1.27;;;0.50;;
7969;SDS011;4030;52.362;9.206;2023-03-14T08:30:18;0.93;;;0.50;;
7969;SDS011;4030;52.362;9.206;2023-03-14T08:32:45;1.20;;;0.63;;
7969;SDS011;4030;52.362;9.206;2023-03-14T08:35:11;0.68;;;0.50;;
7969;SDS011;4030;52.362;9.206;2023-03-14T08:37:37;0.68;;;0.60;;
7969;SDS011;4030;52.362;9.206;2023-03-14T08:40:04;2.03;;;0.50;;
7969;SDS011;4030;52.362;9.206;2023-03-14T08:42:35;1.15;;;0.70;;
7969;SDS011;4030;52.362;9.206;2023-03-14T08:45:02;0.93;;;0.57;;
7969;SDS011;4030;52.362;9.206;2023-03-14T08:47:28;1.13;;;0.50;;
7969;SDS011;4030;52.362;9.206;2023-03-14T08:49:54;0.52;;;0.50;;
7969;SDS011;4030;52.362;9.206;2023-03-14T08:52:20;1.05;;;0.60;;
7969;SDS011;4030;52.362;9.206;2023-03-14T08:54:46;0.60;;;0.50;;
7969;SDS011;4030;52.362;9.206;2023-03-14T08:57:12;1.35;;;0.77;;
7969;SDS011;4030;52.362;9.206;2023-03-14T08:59:38;1.08;;;0.57;;
7969;SDS011;4030;52.362;9.206;2023-03-14T09:02:05;0.50;;;0.50;;
7969;SDS011;4030;52.362;9.206;2023-03-14T09:04:31;1.25;;;0.68;;
7969;SDS011;4030;52.362;9.206;2023-03-14T09:06:57;0.90;;;0.50;;
7969;SDS011;4030;52.362;9.206;2023-03-14T09:09:24;0.88;;;0.50;;
7969;SDS011;4030;52.362;9.206;2023-03-14T09:11:54;1.10;;;0.60;;
7969;SDS011;4030;52.362;9.206;2023-03-14T09:14:21;0.52;;;0.52;;
7969;SDS011;4030;52.362;9.206;2023-03-14T09:16:47;0.60;;;0.60;;
7969;SDS011;4030;52.362;9.206;2023-03-14T09:19:13;0.88;;;0.60;;
7969;SDS011;4030;52.362;9.206;2023-03-14T09:21:39;0.50;;;0.50;;
7969;SDS011;4030;52.362;9.206;2023-03-14T09:24:05;0.82;;;0.55;;
7969;SDS011;4030;52.362;9.206;2023-03-14T09:26:31;0.90;;;0.60;;
7969;SDS011;4030;52.362;9.206;2023-03-14T09:28:57;1.15;;;0.80;;
7969;SDS011;4030;52.362;9.206;2023-03-14T09:31:23;0.70;;;0.70;;
7969;SDS011;4030;52.362;9.206;2023-03-14T09:33:49;1.17;;;0.60;;
7969;SDS011;4030;52.362;9.206;2023-03-14T09:36:15;0.90;;;0.68;;
7969;SDS011;4030;52.362;9.206;2023-03-14T09:38:41;0.68;;;0.65;;
7969;SDS011;4030;52.362;9.206;2023-03-14T09:41:27;1.33;;;0.60;;
7969;SDS011;4030;52.362;9.206;2023-03-14T09:44:04;0.82;;;0.70;;
7969;SDS011;4030;52.362;9.206;2023-03-14T09:46:37;1.33;;;0.82;;
7969;SDS011;4030;52.362;9.206;2023-03-14T09:49:09;1.55;;;0.80;;
7969;SDS011;4030;52.362;9.206;2023-03-14T09:51:41;1.27;;;0.88;;
7969;SDS011;4030;52.362;9.206;2023-03-14T09:54:11;1.77;;;0.90;;
7969;SDS011;4030;52.362;9.206;2023-03-14T09:56:51;0.77;;;0.70;;
7969;SDS011;4030;52.362;9.206;2023-03-14T09:59:18;0.80;;;0.80;;
7969;SDS011;4030;52.362;9.206;2023-03-14T10:01:44;1.60;;;0.80;;
7969;SDS011;4030;52.362;9.206;2023-03-14T10:04:11;0.77;;;0.70;;
7969;SDS011;4030;52.362;9.206;2023-03-14T10:06:41;1.42;;;0.80;;
7969;SDS011;4030;52.362;9.206;2023-03-14T10:09:08;0.80;;;0.73;;
7969;SDS011;4030;52.362;9.206;2023-03-14T10:11:42;1.00;;;0.85;;
7969;SDS011;4030;52.362;9.206;2023-03-14T10:14:09;1.85;;;1.10;;
7969;SDS011;4030;52.362;9.206;2023-03-14T10:16:41;0.80;;;0.80;;
7969;SDS011;4030;52.362;9.206;2023-03-14T10:19:10;1.10;;;1.00;;
7969;SDS011;4030;52.362;9.206;2023-03-14T10:21:40;1.00;;;0.88;;
7969;SDS011;4030;52.362;9.206;2023-03-14T10:24:20;1.30;;;1.15;;
7969;SDS011;4030;52.362;9.206;2023-03-14T10:27:10;2.13;;;0.90;;
7969;SDS011;4030;52.362;9.206;2023-03-14T10:29:52;1.60;;;1.02;;
7969;SDS011;4030;52.362;9.206;2023-03-14T10:32:21;0.80;;;0.80;;
7969;SDS011;4030;52.362;9.206;2023-03-14T10:40:32;1.30;;;1.17;;
7969;SDS011;4030;52.362;9.206;2023-03-14T10:43:03;1.30;;;1.20;;
7969;SDS011;4030;52.362;9.206;2023-03-14T10:48:21;1.50;;;1.33;;
7969;SDS011;4030;52.362;9.206;2023-03-14T10:50:55;1.40;;;1.30;;
7969;SDS011;4030;52.362;9.206;2023-03-14T10:53:24;1.33;;;1.20;;
7969;SDS011;4030;52.362;9.206;2023-03-14T10:55:51;1.58;;;1.00;;
7969;SDS011;4030;52.362;9.206;2023-03-14T10:58:27;1.13;;;0.98;;
7969;SDS011;4030;52.362;9.206;2023-03-14T11:04:01;1.00;;;0.90;;
7969;SDS011;4030;52.362;9.206;2023-03-14T11:21:18;0.85;;;0.60;;
7969;SDS011;4030;52.362;9.206;2023-03-14T11:24:08;0.57;;;0.52;;
7969;SDS011;4030;52.362;9.206;2023-03-14T11:26:48;0.82;;;0.60;;
7969;SDS011;4030;52.362;9.206;2023-03-14T11:29:41;0.60;;;0.60;;
7969;SDS011;4030;52.362;9.206;2023-03-14T11:34:54;0.50;;;0.50;;
7969;SDS011;4030;52.362;9.206;2023-03-14T11:37:32;0.40;;;0.40;;
7969;SDS011;4030;52.362;9.206;2023-03-14T11:42:40;0.40;;;0.40;;
7969;SDS011;4030;52.362;9.206;2023-03-14T11:45:14;0.40;;;0.40;;
7969;SDS011;4030;52.362;9.206;2023-03-14T11:47:44;0.68;;;0.50;;
7969;SDS011;4030;52.362;9.206;2023-03-14T11:50:21;0.40;;;0.40;;
7969;SDS011;4030;52.362;9.206;2023-03-14T11:52:58;0.40;;;0.40;;
7969;SDS011;4030;52.362;9.206;2023-03-14T11:55:46;0.40;;;0.40;;
7969;SDS011;4030;52.362;9.206;2023-03-14T11:58:20;0.47;;;0.45;;
7969;SDS011;4030;52.362;9.206;2023-03-14T12:00:58;0.60;;;0.50;;
7969;SDS011;4030;52.362;9.206;2023-03-14T12:06:28;0.50;;;0.50;;
7969;SDS011;4030;52.362;9.206;2023-03-14T12:09:12;0.47;;;0.47;;
7969;SDS011;4030;52.362;9.206;2023-03-14T12:11:44;0.40;;;0.40;;
7969;SDS011;4030;52.362;9.206;2023-03-14T12:14:33;0.50;;;0.50;;
7969;SDS011;4030;52.362;9.206;2023-03-14T12:22:50;0.60;;;0.60;;
7969;SDS011;4030;52.362;9.206;2023-03-14T12:25:20;0.50;;;0.50;;
7969;SDS011;4030;52.362;9.206;2023-03-14T12:30:30;1.23;;;0.60;;
7969;SDS011;4030;52.362;9.206;2023-03-14T12:35:42;1.27;;;0.65;;
7969;SDS011;4030;52.362;9.206;2023-03-14T12:38:32;0.82;;;0.60;;
7969;SDS011;4030;52.362;9.206;2023-03-14T12:43:44;2.47;;;0.80;;
7969;SDS011;4030;52.362;9.206;2023-03-14T12:46:15;1.38;;;0.68;;
7969;SDS011;4030;52.362;9.206;2023-03-14T12:48:55;3.10;;;0.73;;
7969;SDS011;4030;52.362;9.206;2023-03-14T12:51:40;2.07;;;0.80;;
7969;SDS011;4030;52.362;9.206;2023-03-14T12:54:32;1.45;;;0.77;;
7969;SDS011;4030;52.362;9.206;2023-03-14T13:00:38;2.75;;;0.90;;
7969;SDS011;4030;52.362;9.206;2023-03-14T13:05:54;1.52;;;0.80;;
7969;SDS011;4030;52.362;9.206;2023-03-14T13:08:32;1.63;;;0.88;;
7969;SDS011;4030;52.362;9.206;2023-03-14T13:11:10;1.90;;;0.70;;
7969;SDS011;4030;52.362;9.206;2023-03-14T13:13:56;1.65;;;0.85;;
7969;SDS011;4030;52.362;9.206;2023-03-14T13:16:23;2.55;;;0.77;;
7969;SDS011;4030;52.362;9.206;2023-03-14T13:18:50;2.03;;;0.90;;
7969;SDS011;4030;52.362;9.206;2023-03-14T13:21:25;2.33;;;1.00;;
7969;SDS011;4030;52.362;9.206;2023-03-14T13:24:00;2.42;;;1.00;;
7969;SDS011;4030;52.362;9.206;2023-03-14T13:26:46;2.28;;;1.00;;
7969;SDS011;4030;52.362;9.206;2023-03-14T13:31:59;2.08;;;0.93;;
7969;SDS011;4030;52.362;9.206;2023-03-14T13:34:35;2.10;;;0.77;;
7969;SDS011;4030;52.362;9.206;2023-03-14T13:37:01;2.03;;;0.80;;
7969;SDS011;4030;52.362;9.206;2023-03-14T13:39:27;1.60;;;0.80;;
7969;SDS011;4030;52.362;9.206;2023-03-14T13:41:55;2.50;;;0.90;;
7969;SDS011;4030;52.362;9.206;2023-03-14T13:44:25;2.28;;;1.20;;
7969;SDS011;4030;52.362;9.206;2023-03-14T13:46:59;3.22;;;1.20;;
7969;SDS011;4030;52.362;9.206;2023-03-14T13:49:26;5.47;;;1.20;;
7969;SDS011;4030;52.362;9.206;2023-03-14T13:51:57;3.60;;;1.20;;
7969;SDS011;4030;52.362;9.206;2023-03-14T13:54:23;5.43;;;1.70;;
7969;SDS011;4030;52.362;9.206;2023-03-14T13:57:04;4.55;;;2.55;;
7969;SDS011;4030;52.362;9.206;2023-03-14T13:59:32;4.78;;;2.42;;
7969;SDS011;4030;52.362;9.206;2023-03-14T14:02:04;3.85;;;2.38;;
7969;SDS011;4030;52.362;9.206;2023-03-14T14:04:38;6.40;;;2.97;;
7969;SDS011;4030;52.362;9.206;2023-03-14T14:07:08;5.82;;;2.58;;
7969;SDS011;4030;52.362;9.206;2023-03-14T14:09:50;6.43;;;2.22;;
7969;SDS011;4030;52.362;9.206;2023-03-14T14:17:37;5.70;;;2.38;;
7969;SDS011;4030;52.362;9.206;2023-03-14T14:20:18;6.97;;;2.40;;
7969;SDS011;4030;52.362;9.206;2023-03-14T14:23:03;7.82;;;2.50;;
7969;SDS011;4030;52.362;9.206;2023-03-14T14:25:38;5.97;;;2.13;;
7969;SDS011;4030;52.362;9.206;2023-03-14T14:33:43;7.38;;;2.35;;
7969;SDS011;4030;52.362;9.206;2023-03-14T14:36:18;5.35;;;2.10;;
7969;SDS011;4030;52.362;9.206;2023-03-14T14:38:57;5.75;;;2.13;;
7969;SDS011;4030;52.362;9.206;2023-03-14T14:41:30;4.68;;;1.70;;
7969;SDS011;4030;52.362;9.206;2023-03-14T14:44:05;5.80;;;2.10;;
7969;SDS011;4030;52.362;9.206;2023-03-14T14:46:32;6.13;;;1.88;;
7969;SDS011;4030;52.362;9.206;2023-03-14T14:49:27;5.03;;;2.05;;
7969;SDS011;4030;52.362;9.206;2023-03-14T14:51:59;5.15;;;1.80;;
7969;SDS011;4030;52.362;9.206;2023-03-14T14:54:39;4.97;;;1.80;;
7969;SDS011;4030;52.362;9.206;2023-03-14T14:57:19;5.80;;;1.60;;
7969;SDS011;4030;52.362;9.206;2023-03-14T14:59:54;5.60;;;2.10;;
7969;SDS011;4030;52.362;9.206;2023-03-14T15:02:25;5.82;;;1.90;;
7969;SDS011;4030;52.362;9.206;2023-03-14T15:05:20;5.32;;;1.60;;
7969;SDS011;4030;52.362;9.206;2023-03-14T15:07:48;6.30;;;1.80;;
7969;SDS011;4030;52.362;9.206;2023-03-14T15:10:19;4.43;;;1.80;;
7969;SDS011;4030;52.362;9.206;2023-03-14T15:12:47;4.82;;;1.85;;
7969;SDS011;4030;52.362;9.206;2023-03-14T15:15:13;5.43;;;1.80;;
7969;SDS011;4030;52.362;9.206;2023-03-14T15:17:40;4.65;;;1.70;;
7969;SDS011;4030;52.362;9.206;2023-03-14T15:20:10;4.85;;;1.50;;
7969;SDS011;4030;52.362;9.206;2023-03-14T15:22:39;7.18;;;1.73;;
7969;SDS011;4030;52.362;9.206;2023-03-14T15:25:05;5.80;;;1.80;;
7969;SDS011;4030;52.362;9.206;2023-03-14T15:27:32;3.78;;;1.50;;
7969;SDS011;4030;52.362;9.206;2023-03-14T15:29:58;4.00;;;1.60;;
7969;SDS011;4030;52.362;9.206;2023-03-14T15:32:25;3.65;;;1.50;;
7969;SDS011;4030;52.362;9.206;2023-03-14T15:34:52;5.07;;;1.63;;
7969;SDS011;4030;52.362;9.206;2023-03-14T15:37:19;5.20;;;1.90;;
7969;SDS011;4030;52.362;9.206;2023-03-14T15:39:45;5.38;;;1.63;;
7969;SDS011;4030;52.362;9.206;2023-03-14T15:42:11;3.55;;;1.40;;
7969;SDS011;4030;52.362;9.206;2023-03-14T15:44:37;4.00;;;1.77;;
7969;SDS011;4030;52.362;9.206;2023-03-14T15:47:04;4.90;;;2.00;;
7969;SDS011;4030;52.362;9.206;2023-03-14T15:49:30;5.78;;;2.35;;
7969;SDS011;4030;52.362;9.206;2023-03-14T15:51:57;4.28;;;1.80;;
7969;SDS011;4030;52.362;9.206;2023-03-14T15:54:23;6.38;;;2.05;;
7969;SDS011;4030;52.362;9.206;2023-03-14T15:56:53;2.90;;;1.60;;
7969;SDS011;4030;52.362;9.206;2023-03-14T15:59:22;3.42;;;1.70;;
7969;SDS011;4030;52.362;9.206;2023-03-14T16:01:48;5.20;;;1.50;;
7969;SDS011;4030;52.362;9.206;2023-03-14T16:04:14;4.70;;;1.63;;
7969;SDS011;4030;52.362;9.206;2023-03-14T16:06:40;3.65;;;1.60;;
7969;SDS011;4030;52.362;9.206;2023-03-14T16:09:05;4.60;;;1.73;;
7969;SDS011;4030;52.362;9.206;2023-03-14T16:11:32;4.07;;;1.60;;
7969;SDS011;4030;52.362;9.206;2023-03-14T16:13:58;3.70;;;1.40;;
7969;SDS011;4030;52.362;9.206;2023-03-14T16:16:23;6.57;;;1.70;;
7969;SDS011;4030;52.362;9.206;2023-03-14T16:18:50;4.47;;;1.60;;
7969;SDS011;4030;52.362;9.206;2023-03-14T16:21:17;3.58;;;1.45;;
7969;SDS011;4030;52.362;9.206;2023-03-14T16:23:44;4.00;;;1.50;;
7969;SDS011;4030;52.362;9.206;2023-03-14T16:26:11;3.25;;;1.60;;
7969;SDS011;4030;52.362;9.206;2023-03-14T16:28:42;3.13;;;1.40;;
7969;SDS011;4030;52.362;9.206;2023-03-14T16:31:10;3.75;;;1.50;;
7969;SDS011;4030;52.362;9.206;2023-03-14T16:33:40;3.35;;;1.40;;
7969;SDS011;4030;52.362;9.206;2023-03-14T16:36:06;4.68;;;2.03;;
7969;SDS011;4030;52.362;9.206;2023-03-14T16:38:36;3.42;;;1.40;;